South Belmar, New Jersey
Current Conditions -  °F | °C
As of 7:55 PM on Friday 19 Dec 2014 (Local Time) from KBLM Reporting Station
Overcast Overcast  
Wind Chill: 25°   Ceiling: 2800
Heat Index: 34°   Visibility: 10mi
Dew Point: 19°   Wind: 13mph
Humidity: 56%   Direction: 340°NNW
Pressure: 30.14"   Gusts: NA
Location:  40.1681°N, 74.0774°W
Report Text: KBLM 200055Z AUTO 34011KT 10SM OVC028 01/M07 A3014 RMK AO1
Loading
Personal Weather Stations






























Interactive Weather Map New forecast layout! Learn more

10-Day Weather Forecast

Advertisements
Track Severe Weather on mobile